createdAt,value
2018-06-02T00:01:01.018Z,11.23
2018-06-02T00:03:04.590Z,11.07
2018-06-02T00:05:08.088Z,11.83
2018-06-02T00:07:11.677Z,11.53
2018-06-02T00:09:15.197Z,10.17
2018-06-02T00:11:18.787Z,10.83
2018-06-02T00:13:22.524Z,10.60
2018-06-02T00:15:26.076Z,10.17
2018-06-02T00:17:29.614Z,10.63
2018-06-02T00:19:33.109Z,10.30
2018-06-02T00:21:37.236Z,10.73
2018-06-02T00:23:40.555Z,11.47
2018-06-02T00:25:44.101Z,11.23
2018-06-02T00:27:47.602Z,11.87
2018-06-02T00:29:51.177Z,12.97
2018-06-02T00:31:54.695Z,13.63
2018-06-02T00:33:58.221Z,11.77
2018-06-02T00:36:01.782Z,11.57
2018-06-02T00:38:05.344Z,12.37
2018-06-02T00:40:08.525Z,11.37
2018-06-02T00:42:12.068Z,12.13
2018-06-02T00:44:15.570Z,14.30
2018-06-02T00:46:19.122Z,13.30
2018-06-02T00:48:22.695Z,13.40
2018-06-02T00:50:26.232Z,12.30
2018-06-02T00:52:29.776Z,12.73
2018-06-02T00:54:44.137Z,10.90
2018-06-02T00:56:47.618Z,13.50
2018-06-02T00:58:51.194Z,12.63
2018-06-02T01:00:54.933Z,14.33
2018-06-02T01:02:58.448Z,12.57
2018-06-02T01:05:01.984Z,11.70
2018-06-02T01:07:05.205Z,12.40
2018-06-02T01:09:08.704Z,12.60
2018-06-02T01:11:12.282Z,15.23
2018-06-02T01:13:15.779Z,13.47
2018-06-02T01:15:19.273Z,12.67
2018-06-02T01:17:22.805Z,11.27
2018-06-02T01:19:26.368Z,13.47
2018-06-02T01:21:29.894Z,15.13
2018-06-02T01:23:33.398Z,14.60
2018-06-02T01:25:36.949Z,12.80
2018-06-02T01:27:40.504Z,11.80
2018-06-02T01:29:44.072Z,16.57
2018-06-02T01:31:47.557Z,18.30
2018-06-02T01:33:51.156Z,20.70
2018-06-02T01:35:54.680Z,25.03
2018-06-02T01:37:58.234Z,25.73
2018-06-02T01:40:01.714Z,24.67
2018-06-02T01:42:05.212Z,24.73
2018-06-02T01:44:08.784Z,24.67
2018-06-02T01:46:12.340Z,25.87
2018-06-02T01:48:15.863Z,24.17
2018-06-02T01:50:19.393Z,25.53
2018-06-02T01:52:22.955Z,25.90
2018-06-02T01:54:26.464Z,25.63
2018-06-02T01:56:30.021Z,23.30
2018-06-02T01:58:33.582Z,25.00
2018-06-02T02:00:37.080Z,22.73
2018-06-02T02:02:40.650Z,23.10
2018-06-02T02:04:44.145Z,24.73
2018-06-02T02:06:47.687Z,22.20
2018-06-02T02:08:51.267Z,23.43
2018-06-02T02:10:54.792Z,24.60
2018-06-02T02:12:58.305Z,26.97
2018-06-02T02:15:01.838Z,25.33
2018-06-02T02:17:05.031Z,25.33
2018-06-02T02:19:08.568Z,23.37
2018-06-02T02:21:12.051Z,25.53
2018-06-02T02:23:15.619Z,25.43
2018-06-02T02:25:19.113Z,25.80
2018-06-02T02:27:22.654Z,24.73
2018-06-02T02:29:26.195Z,24.97
2018-06-02T02:31:29.782Z,23.83
2018-06-02T02:33:33.322Z,23.17
2018-06-02T02:35:36.839Z,22.13
2018-06-02T02:37:40.317Z,22.60
2018-06-02T02:39:43.863Z,22.43
2018-06-02T02:41:47.402Z,21.77
2018-06-02T02:43:50.585Z,21.57
2018-06-02T02:45:54.104Z,21.83
2018-06-02T02:47:57.661Z,21.57
2018-06-02T02:50:01.178Z,21.03
2018-06-02T02:52:04.656Z,19.03
2018-06-02T02:54:08.226Z,21.30
2018-06-02T02:56:11.746Z,20.67
2018-06-02T02:58:15.472Z,19.70
2018-06-02T03:00:18.947Z,18.57
2018-06-02T03:02:22.504Z,19.23
2018-06-02T03:04:26.019Z,18.50
2018-06-02T03:06:29.571Z,19.50
2018-06-02T03:08:33.087Z,17.73
2018-06-02T03:10:36.607Z,15.80
2018-06-02T03:12:40.105Z,16.20
2018-06-02T03:14:43.656Z,17.07
2018-06-02T03:16:47.404Z,17.30
2018-06-02T03:18:51.021Z,16.37
2018-06-02T03:20:54.574Z,17.20
2018-06-02T03:22:58.098Z,16.97
2018-06-02T03:25:01.612Z,17.10
2018-06-02T03:27:04.465Z,17.00
2018-06-02T03:29:08.042Z,17.23
2018-06-02T03:31:11.575Z,17.80
2018-06-02T03:33:15.089Z,17.03
2018-06-02T03:35:18.629Z,18.53
2018-06-02T03:37:22.178Z,17.83
2018-06-02T03:39:25.686Z,17.03
2018-06-02T03:41:29.190Z,17.73
2018-06-02T03:43:32.775Z,16.67
2018-06-02T03:45:36.253Z,14.80
2018-06-02T03:47:39.798Z,16.97
2018-06-02T03:49:43.302Z,14.20
2018-06-02T03:51:46.852Z,13.97
2018-06-02T03:53:50.408Z,15.13
2018-06-02T03:55:53.889Z,13.77
2018-06-02T03:57:57.396Z,14.37
2018-06-02T04:00:00.925Z,13.90
2018-06-02T04:02:04.420Z,13.17
2018-06-02T04:04:07.945Z,14.13
2018-06-02T04:06:11.495Z,11.90
2018-06-02T04:08:15.023Z,11.63
2018-06-02T04:10:18.548Z,11.73
2018-06-02T04:12:22.068Z,11.57
2018-06-02T04:14:25.606Z,10.33
2018-06-02T04:16:29.119Z,10.83
2018-06-02T04:18:32.679Z,11.87
2018-06-02T04:20:36.355Z,10.83
2018-06-02T04:22:39.872Z,10.73
2018-06-02T04:24:43.489Z,9.17
2018-06-02T04:26:46.990Z,11.40
2018-06-02T04:28:50.583Z,11.67
2018-06-02T04:30:54.108Z,11.40
2018-06-02T04:32:57.594Z,9.27
2018-06-02T04:35:01.168Z,8.60
2018-06-02T04:37:04.337Z,8.80
2018-06-02T04:39:07.861Z,8.17
2018-06-02T04:41:11.408Z,7.80
2018-06-02T04:43:14.949Z,7.97
2018-06-02T04:45:18.539Z,8.23
2018-06-02T04:47:22.228Z,8.23
2018-06-02T04:49:25.766Z,8.53
2018-06-02T04:51:29.358Z,7.60
2018-06-02T04:53:32.878Z,8.90
2018-06-02T04:55:36.429Z,8.73
2018-06-02T04:57:39.940Z,8.70
2018-06-02T04:59:43.484Z,8.57
2018-06-02T05:01:47.016Z,9.60
2018-06-02T05:03:50.550Z,8.93
2018-06-02T05:05:54.092Z,9.20
2018-06-02T05:07:57.567Z,8.70
2018-06-02T05:10:01.137Z,7.67
2018-06-02T05:12:04.660Z,8.73
2018-06-02T05:14:08.156Z,9.13
2018-06-02T05:16:11.753Z,9.23
2018-06-02T05:18:15.303Z,7.93
2018-06-02T05:20:18.849Z,8.40
2018-06-02T05:22:22.407Z,7.70
2018-06-02T05:24:25.938Z,7.63
2018-06-02T05:26:29.438Z,7.00
2018-06-02T05:28:32.986Z,6.60
2018-06-02T05:30:36.493Z,6.27
2018-06-02T05:32:40.025Z,6.50
2018-06-02T05:34:46.479Z,7.20
2018-06-02T05:36:49.970Z,6.60
2018-06-02T05:38:53.538Z,6.97
2018-06-02T05:40:57.077Z,5.90
2018-06-02T05:43:00.597Z,7.00
2018-06-02T05:45:03.787Z,7.40
2018-06-02T05:47:07.394Z,7.00
2018-06-02T05:49:10.949Z,6.70
2018-06-02T05:51:14.503Z,6.90
2018-06-02T05:53:17.982Z,5.93
2018-06-02T05:55:21.550Z,7.23
2018-06-02T05:57:25.033Z,6.70
2018-06-02T05:59:28.574Z,6.20
2018-06-02T06:01:32.229Z,5.97
2018-06-02T06:03:35.753Z,5.90
2018-06-02T06:05:39.276Z,7.57
2018-06-02T06:07:42.780Z,6.43
2018-06-02T06:09:46.279Z,7.83
2018-06-02T06:11:49.802Z,7.43
2018-06-02T06:13:53.297Z,7.00
2018-06-02T06:15:56.852Z,6.73
2018-06-02T06:18:00.336Z,6.93
2018-06-02T06:20:03.535Z,7.40
2018-06-02T06:22:07.030Z,7.30
2018-06-02T06:24:10.531Z,7.00
2018-06-02T06:26:14.064Z,6.13
2018-06-02T06:28:17.560Z,6.50
2018-06-02T06:30:21.084Z,6.80
2018-06-02T06:32:24.657Z,6.80
2018-06-02T06:34:28.146Z,7.30
2018-06-02T06:36:31.665Z,7.43
2018-06-02T06:38:35.163Z,7.73
2018-06-02T06:40:38.896Z,7.40
2018-06-02T06:42:42.384Z,7.23
2018-06-02T06:44:45.915Z,7.53
2018-06-02T06:46:49.695Z,7.53
2018-06-02T06:48:53.240Z,7.90
2018-06-02T06:50:56.749Z,8.20
2018-06-02T06:53:00.273Z,8.60
2018-06-02T06:55:03.820Z,8.87
2018-06-02T06:57:07.350Z,8.30
2018-06-02T06:59:10.908Z,8.97
2018-06-02T07:01:14.447Z,9.03
2018-06-02T07:03:17.951Z,8.70
2018-06-02T07:05:21.568Z,9.27
2018-06-02T07:07:25.092Z,8.57
2018-06-02T07:09:28.646Z,8.87
2018-06-02T07:11:32.189Z,9.93
2018-06-02T07:13:35.728Z,8.80
2018-06-02T07:15:39.300Z,8.70
2018-06-02T07:17:43.121Z,9.10
2018-06-02T07:19:46.740Z,8.83
2018-06-02T07:21:50.375Z,9.57
2018-06-02T07:23:54.076Z,8.70
2018-06-02T07:25:57.642Z,8.87
2018-06-02T07:28:01.171Z,6.97
2018-06-02T07:30:04.366Z,7.53
2018-06-02T07:32:07.884Z,7.20
2018-06-02T07:34:11.453Z,7.43
2018-06-02T07:36:14.989Z,7.07
2018-06-02T07:38:18.490Z,8.53
2018-06-02T07:40:22.000Z,7.77
2018-06-02T07:42:25.594Z,7.33
2018-06-02T07:44:29.133Z,7.03
2018-06-02T07:46:32.667Z,6.43
2018-06-02T07:48:36.267Z,6.10
2018-06-02T07:50:40.020Z,7.40
2018-06-02T07:52:43.568Z,6.50
2018-06-02T07:54:47.125Z,6.50
2018-06-02T07:56:50.645Z,6.27
2018-06-02T07:58:54.155Z,6.90
2018-06-02T08:00:57.691Z,6.27
2018-06-02T08:03:01.209Z,5.43
2018-06-02T08:05:04.743Z,6.27
2018-06-02T08:07:08.276Z,7.57
2018-06-02T08:09:11.794Z,7.70
2018-06-02T08:11:15.331Z,7.20
2018-06-02T08:13:18.877Z,7.27
2018-06-02T08:15:22.415Z,6.93
2018-06-02T08:17:25.970Z,7.13
2018-06-02T08:19:29.474Z,8.80
2018-06-02T08:21:33.064Z,8.90
2018-06-02T08:23:36.577Z,8.17
2018-06-02T08:25:40.119Z,7.30
2018-06-02T08:27:43.644Z,6.87
2018-06-02T08:29:47.147Z,7.97
2018-06-02T08:31:50.744Z,7.23
2018-06-02T08:33:54.284Z,7.40
2018-06-02T08:35:57.782Z,6.60
2018-06-02T08:38:01.306Z,5.63
2018-06-02T08:40:04.543Z,6.33
2018-06-02T08:42:08.135Z,6.10
2018-06-02T08:44:11.730Z,6.00
2018-06-02T08:46:15.490Z,5.60
2018-06-02T08:48:19.065Z,5.30
2018-06-02T08:50:22.636Z,5.30
2018-06-02T08:52:26.190Z,4.90
2018-06-02T08:54:29.800Z,5.67
2018-06-02T08:56:33.477Z,5.17
2018-06-02T08:58:37.031Z,4.93
2018-06-02T09:00:40.520Z,4.80
2018-06-02T09:02:44.061Z,5.33
2018-06-02T09:04:47.598Z,4.60
2018-06-02T09:06:51.202Z,4.73
2018-06-02T09:08:54.704Z,5.13
2018-06-02T09:11:01.165Z,5.40
2018-06-02T09:13:04.666Z,4.80
2018-06-02T09:15:08.229Z,5.03
2018-06-02T09:17:11.804Z,4.23
2018-06-02T09:19:15.360Z,3.70
2018-06-02T09:21:18.936Z,4.10
2018-06-02T09:23:22.530Z,3.97
2018-06-02T09:25:26.050Z,4.60
2018-06-02T09:27:29.624Z,4.10
2018-06-02T09:29:33.139Z,3.33
2018-06-02T09:31:36.737Z,3.73
2018-06-02T09:33:40.312Z,4.43
2018-06-02T09:35:43.923Z,3.40
2018-06-02T09:37:47.463Z,3.50
2018-06-02T09:39:51.236Z,3.20
2018-06-02T09:41:54.775Z,3.47
2018-06-02T09:43:58.393Z,3.50
2018-06-02T09:46:01.895Z,3.47
2018-06-02T09:48:05.492Z,3.73
2018-06-02T09:50:09.012Z,3.77
2018-06-02T09:52:12.636Z,3.67
2018-06-02T09:54:16.177Z,3.47
2018-06-02T09:56:19.673Z,3.50
2018-06-02T09:58:23.280Z,3.10
2018-06-02T10:00:26.597Z,3.20
2018-06-02T10:02:30.178Z,3.73
2018-06-02T10:04:35.433Z,3.27
2018-06-02T10:06:39.124Z,3.03
2018-06-02T10:08:42.684Z,2.50
2018-06-02T10:10:46.326Z,2.93
2018-06-02T10:12:49.938Z,2.97
2018-06-02T10:14:53.506Z,2.40
2018-06-02T10:16:57.040Z,2.47
2018-06-02T10:19:00.608Z,2.60
2018-06-02T10:21:04.179Z,2.70
2018-06-02T10:23:07.781Z,3.00
2018-06-02T10:25:11.401Z,2.87
2018-06-02T10:27:14.642Z,2.70
2018-06-02T10:29:18.161Z,2.87
2018-06-02T10:31:21.708Z,2.93
2018-06-02T10:33:25.245Z,3.23
2018-06-02T10:35:28.818Z,2.77
2018-06-02T10:37:32.199Z,3.40
2018-06-02T10:39:35.732Z,3.67
2018-06-02T10:41:39.355Z,2.97
2018-06-02T10:43:42.967Z,2.77
2018-06-02T10:45:46.525Z,2.70
2018-06-02T10:47:50.027Z,2.57
2018-06-02T10:49:53.543Z,2.90
2018-06-02T10:51:57.041Z,2.87
2018-06-02T10:54:00.616Z,3.03
2018-06-02T10:56:04.145Z,3.60
2018-06-02T10:58:07.719Z,3.63
2018-06-02T11:00:11.228Z,3.30
2018-06-02T11:02:14.720Z,3.23
2018-06-02T11:04:18.351Z,3.20
2018-06-02T11:06:21.886Z,3.17
2018-06-02T11:08:25.477Z,2.80
2018-06-02T11:10:28.978Z,2.90
2018-06-02T11:12:32.468Z,2.70
2018-06-02T11:14:36.001Z,2.90
2018-06-02T11:16:39.529Z,3.27
2018-06-02T11:18:43.063Z,3.00
2018-06-02T11:20:46.639Z,3.03
2018-06-02T11:22:50.134Z,2.90
2018-06-02T11:24:53.712Z,3.10
2018-06-02T11:26:57.241Z,3.07
2018-06-02T11:29:00.800Z,3.40
2018-06-02T11:31:04.362Z,3.60
2018-06-02T11:33:07.953Z,3.93
2018-06-02T11:35:11.430Z,3.77
2018-06-02T11:37:14.975Z,3.90
2018-06-02T11:39:18.545Z,4.00
2018-06-02T11:41:22.091Z,3.97
2018-06-02T11:43:25.658Z,4.03
2018-06-02T11:45:29.202Z,3.70
2018-06-02T11:47:32.767Z,4.30
2018-06-02T11:49:36.486Z,4.03
2018-06-02T11:51:40.029Z,3.77
2018-06-02T11:53:43.548Z,4.10
2018-06-02T11:55:47.118Z,3.70
2018-06-02T11:57:50.693Z,4.13
2018-06-02T11:59:54.287Z,4.33
2018-06-02T12:01:57.876Z,3.90
2018-06-02T12:04:01.435Z,4.37
2018-06-02T12:06:04.997Z,3.93
2018-06-02T12:08:08.532Z,3.87
2018-06-02T12:10:12.054Z,4.20
2018-06-02T12:12:15.574Z,4.27
2018-06-02T12:14:19.229Z,4.80
2018-06-02T12:16:22.772Z,4.60
2018-06-02T12:18:26.346Z,5.23
2018-06-02T12:20:29.957Z,5.07
2018-06-02T12:22:33.504Z,6.10
2018-06-02T12:24:37.013Z,6.23
2018-06-02T12:26:40.551Z,6.03
2018-06-02T12:28:43.773Z,5.60
2018-06-02T12:30:47.306Z,6.13
2018-06-02T12:32:50.871Z,6.13
2018-06-02T12:34:54.380Z,6.70
2018-06-02T12:36:57.871Z,6.73
2018-06-02T12:39:01.392Z,7.07
2018-06-02T12:41:04.978Z,6.93
2018-06-02T12:43:08.457Z,7.80
2018-06-02T12:45:12.074Z,7.67
2018-06-02T12:47:15.552Z,8.17
2018-06-02T12:49:19.148Z,8.27
2018-06-02T12:51:22.651Z,7.70
2018-06-02T12:53:26.255Z,7.50
2018-06-02T12:55:29.953Z,7.47
2018-06-02T12:57:33.489Z,6.97
2018-06-02T12:59:37.011Z,7.27
2018-06-02T13:01:40.541Z,6.33
2018-06-02T13:03:44.059Z,7.07
2018-06-02T13:05:47.629Z,6.10
2018-06-02T13:07:51.148Z,6.50
2018-06-02T13:09:54.709Z,5.97
2018-06-02T13:11:58.218Z,5.07
2018-06-02T13:14:01.751Z,5.60
2018-06-02T13:16:05.309Z,3.90
2018-06-02T13:18:09.037Z,2.80
2018-06-02T13:20:12.597Z,2.83
2018-06-02T13:22:16.109Z,2.70
2018-06-02T13:24:19.616Z,3.40
2018-06-02T13:26:23.216Z,3.50
2018-06-02T13:28:26.737Z,3.93
2018-06-02T13:30:30.287Z,3.37
2018-06-02T13:32:33.866Z,3.40
2018-06-02T13:34:37.371Z,3.50
2018-06-02T13:36:41.013Z,2.83
2018-06-02T13:38:44.565Z,2.67
2018-06-02T13:40:48.124Z,3.20
2018-06-02T13:42:51.657Z,3.30
2018-06-02T13:44:55.189Z,3.20
2018-06-02T13:46:58.729Z,3.40
2018-06-02T13:49:02.268Z,3.80
2018-06-02T13:51:05.804Z,3.53
2018-06-02T13:53:09.325Z,3.43
2018-06-02T13:55:12.812Z,3.90
2018-06-02T13:57:16.365Z,4.70
2018-06-02T13:59:19.868Z,5.10
2018-06-02T14:01:23.399Z,5.80
2018-06-02T14:03:26.913Z,5.00
2018-06-02T14:05:30.419Z,6.07
2018-06-02T14:07:33.986Z,5.97
2018-06-02T14:09:37.483Z,6.37
2018-06-02T14:11:41.074Z,6.20
2018-06-02T14:13:44.604Z,6.97
2018-06-02T14:15:48.141Z,6.73
2018-06-02T14:17:51.674Z,6.73
2018-06-02T14:19:55.213Z,6.57
2018-06-02T14:21:58.713Z,6.80
2018-06-02T14:24:02.224Z,6.80
2018-06-02T14:26:05.745Z,6.70
2018-06-02T14:28:09.276Z,6.47
2018-06-02T14:30:12.865Z,7.43
2018-06-02T14:32:16.033Z,7.03
2018-06-02T14:34:19.551Z,6.37
2018-06-02T14:36:23.059Z,7.90
2018-06-02T14:38:26.605Z,7.10
2018-06-02T14:40:30.192Z,8.53
2018-06-02T14:42:33.717Z,8.50
2018-06-02T14:44:37.287Z,8.27
2018-06-02T14:46:40.808Z,8.13
2018-06-02T14:48:44.335Z,8.60
2018-06-02T14:50:47.887Z,7.67
2018-06-02T14:52:51.410Z,7.73
2018-06-02T14:54:55.029Z,7.77
2018-06-02T14:56:58.557Z,8.70
2018-06-02T14:59:02.182Z,8.17
2018-06-02T15:01:05.734Z,8.67
2018-06-02T15:03:09.290Z,8.33
2018-06-02T15:05:12.798Z,8.80
2018-06-02T15:07:16.345Z,9.17
2018-06-02T15:09:19.911Z,8.87
2018-06-02T15:11:23.411Z,8.87
2018-06-02T15:13:26.931Z,8.80
2018-06-02T15:15:30.479Z,7.97
2018-06-02T15:17:33.985Z,8.43
2018-06-02T15:19:37.566Z,7.63
2018-06-02T15:21:41.133Z,8.40
2018-06-02T15:23:44.675Z,7.73
2018-06-02T15:25:48.230Z,7.23
2018-06-02T15:27:51.752Z,8.17
2018-06-02T15:29:55.318Z,8.00
2018-06-02T15:31:58.876Z,7.70
2018-06-02T15:34:02.396Z,8.40
2018-06-02T15:36:05.975Z,8.87
2018-06-02T15:38:09.537Z,8.77
2018-06-02T15:40:13.061Z,8.40
2018-06-02T15:42:16.583Z,9.00
2018-06-02T15:44:20.124Z,8.80
2018-06-02T15:46:23.697Z,7.90
2018-06-02T15:48:27.263Z,7.63
2018-06-02T15:50:30.845Z,7.43
2018-06-02T15:52:34.414Z,7.00
2018-06-02T15:54:37.936Z,6.73
2018-06-02T15:56:41.525Z,6.90
2018-06-02T15:58:45.109Z,6.60
2018-06-02T16:00:48.729Z,6.30
2018-06-02T16:02:52.257Z,5.63
2018-06-02T16:04:55.799Z,5.30
2018-06-02T16:06:59.350Z,5.50
2018-06-02T16:09:02.927Z,5.50
2018-06-02T16:11:06.533Z,5.80
2018-06-02T16:13:10.217Z,6.20
2018-06-02T16:15:13.826Z,6.10
2018-06-02T16:17:17.384Z,5.90
2018-06-02T16:19:20.899Z,5.87
2018-06-02T16:21:24.475Z,5.97
2018-06-02T16:23:28.027Z,7.37
2018-06-02T16:25:31.611Z,6.90
2018-06-02T16:27:35.168Z,7.50
2018-06-02T16:29:38.907Z,6.30
2018-06-02T16:31:42.468Z,7.10
2018-06-02T16:33:46.027Z,6.40
2018-06-02T16:35:49.766Z,6.63
2018-06-02T16:37:53.276Z,6.40
2018-06-02T16:39:56.803Z,5.67
2018-06-02T16:42:00.407Z,5.53
2018-06-02T16:44:03.934Z,4.97
2018-06-02T16:46:07.609Z,4.57
2018-06-02T16:48:11.251Z,4.20
2018-06-02T16:50:14.805Z,3.87
2018-06-02T16:52:18.550Z,4.20
2018-06-02T16:54:22.074Z,4.10
2018-06-02T16:56:25.744Z,5.13
2018-06-02T16:58:29.281Z,3.90
2018-06-02T17:00:32.834Z,4.83
2018-06-02T17:02:36.483Z,5.93
2018-06-02T17:04:40.043Z,4.70
2018-06-02T17:06:43.630Z,5.30
2018-06-02T17:08:47.155Z,4.00
2018-06-02T17:10:50.733Z,3.40
2018-06-02T17:12:54.314Z,3.57
2018-06-02T17:14:57.943Z,3.20
2018-06-02T17:17:01.478Z,3.27
2018-06-02T17:19:04.661Z,3.37
2018-06-02T17:21:08.200Z,3.37
2018-06-02T17:23:11.752Z,3.30
2018-06-02T17:25:15.299Z,3.20
2018-06-02T17:27:18.858Z,3.50
2018-06-02T17:29:22.383Z,3.33
2018-06-02T17:31:25.891Z,3.90
2018-06-02T17:33:29.403Z,3.30
2018-06-02T17:35:32.985Z,3.60
2018-06-02T17:37:36.338Z,3.60
2018-06-02T17:39:39.886Z,2.70
2018-06-02T17:41:43.490Z,3.33
2018-06-02T17:43:46.999Z,3.37
2018-06-02T17:45:50.926Z,3.50
2018-06-02T17:47:54.477Z,3.30
2018-06-02T17:49:57.971Z,3.40
2018-06-02T17:52:01.553Z,3.80
2018-06-02T17:54:04.722Z,3.77
2018-06-02T17:56:08.252Z,3.93
2018-06-02T17:58:11.878Z,4.90
2018-06-02T18:00:15.432Z,5.63
2018-06-02T18:02:18.992Z,5.07
2018-06-02T18:04:22.526Z,4.63
2018-06-02T18:06:26.009Z,5.23
2018-06-02T18:08:29.580Z,5.00
2018-06-02T18:10:33.128Z,3.87
2018-06-02T18:12:36.397Z,4.20
2018-06-02T18:14:39.924Z,3.90
2018-06-02T18:16:43.453Z,3.63
2018-06-02T18:18:46.985Z,7.50
2018-06-02T18:20:50.480Z,4.60
2018-06-02T18:22:54.048Z,3.73
2018-06-02T18:24:57.553Z,3.50
2018-06-02T18:27:01.132Z,2.93
2018-06-02T18:29:04.742Z,3.27
2018-06-02T18:31:08.251Z,2.93
2018-06-02T18:33:11.821Z,3.00
2018-06-02T18:35:15.304Z,3.13
2018-06-02T18:37:18.837Z,3.10
2018-06-02T18:39:22.473Z,2.97
2018-06-02T18:41:26.016Z,3.10
2018-06-02T18:43:29.592Z,3.33
2018-06-02T18:45:33.125Z,3.07
2018-06-02T18:47:36.659Z,3.27
2018-06-02T18:49:40.203Z,3.10
2018-06-02T18:51:43.772Z,3.10
2018-06-02T18:53:47.337Z,3.17
2018-06-02T18:55:50.863Z,3.53
2018-06-02T18:57:54.461Z,3.20
2018-06-02T18:59:57.953Z,3.00
2018-06-02T19:02:01.460Z,2.77
2018-06-02T19:04:05.069Z,3.50
2018-06-02T19:06:08.573Z,3.33
2018-06-02T19:08:12.175Z,3.10
2018-06-02T19:10:15.743Z,3.33
2018-06-02T19:12:19.260Z,2.97
2018-06-02T19:14:22.848Z,3.57
2018-06-02T19:16:26.414Z,3.30
2018-06-02T19:18:29.989Z,3.27
2018-06-02T19:20:33.604Z,3.50
2018-06-02T19:22:37.140Z,3.47
2018-06-02T19:24:40.918Z,3.40
2018-06-02T19:26:44.433Z,3.47
2018-06-02T19:28:48.953Z,3.57
2018-06-02T19:30:52.550Z,3.90
2018-06-02T19:32:56.104Z,3.10
2018-06-02T19:34:59.623Z,3.80
2018-06-02T19:37:03.170Z,3.93
2018-06-02T19:39:06.054Z,3.30
2018-06-02T19:41:09.591Z,3.53
2018-06-02T19:43:13.115Z,3.90
2018-06-02T19:45:16.689Z,4.00
2018-06-02T19:47:20.186Z,3.83
2018-06-02T19:49:23.781Z,3.40
2018-06-02T19:51:27.313Z,3.40
2018-06-02T19:53:30.895Z,3.90
2018-06-02T19:55:34.435Z,3.80
2018-06-02T19:57:37.985Z,3.83
2018-06-02T19:59:41.576Z,3.80
2018-06-02T20:01:45.085Z,3.83
2018-06-02T20:03:48.662Z,3.57
2018-06-02T20:05:52.179Z,3.40
2018-06-02T20:07:55.727Z,3.90
2018-06-02T20:09:59.465Z,3.80
2018-06-02T20:12:02.965Z,4.07
2018-06-02T20:14:06.182Z,4.00
2018-06-02T20:16:09.770Z,3.80
2018-06-02T20:18:13.356Z,5.00
2018-06-02T20:20:16.929Z,5.60
2018-06-02T20:22:20.492Z,5.40
2018-06-02T20:24:24.007Z,5.77
2018-06-02T20:26:27.551Z,5.83
2018-06-02T20:28:31.028Z,6.33
2018-06-02T20:30:34.606Z,9.50
2018-06-02T20:32:38.120Z,10.00
2018-06-02T20:34:41.654Z,10.03
2018-06-02T20:36:45.212Z,8.70
2018-06-02T20:38:48.732Z,7.23
2018-06-02T20:40:52.293Z,6.47
2018-06-02T20:42:55.753Z,6.20
2018-06-02T20:44:59.301Z,6.70
2018-06-02T20:47:02.820Z,6.20
2018-06-02T20:49:06.411Z,6.60
2018-06-02T20:51:09.974Z,7.03
2018-06-02T20:53:13.510Z,7.23
2018-06-02T20:55:17.032Z,9.10
2018-06-02T20:57:20.566Z,8.20
2018-06-02T20:59:24.079Z,7.67
2018-06-02T21:01:27.502Z,8.27
2018-06-02T21:03:31.041Z,7.57
2018-06-02T21:05:34.592Z,6.97
2018-06-02T21:07:38.146Z,7.73
2018-06-02T21:09:41.726Z,7.40
2018-06-02T21:11:45.216Z,7.33
2018-06-02T21:13:48.714Z,7.10
2018-06-02T21:15:52.300Z,7.37
2018-06-02T21:17:55.834Z,7.80
2018-06-02T21:19:59.360Z,7.73
2018-06-02T21:22:02.889Z,6.40
2018-06-02T21:24:06.505Z,7.60
2018-06-02T21:26:10.040Z,7.10
2018-06-02T21:28:13.597Z,7.87
2018-06-02T21:30:17.099Z,8.03
2018-06-02T21:32:20.620Z,6.17
2018-06-02T21:34:24.169Z,6.83
2018-06-02T21:36:27.703Z,7.07
2018-06-02T21:38:31.223Z,7.10
2018-06-02T21:40:34.748Z,7.03
2018-06-02T21:42:38.284Z,7.30
2018-06-02T21:44:41.775Z,7.10
2018-06-02T21:46:44.968Z,7.03
2018-06-02T21:48:48.486Z,7.60
2018-06-02T21:50:52.035Z,7.97
2018-06-02T21:52:55.556Z,7.47
2018-06-02T21:54:59.074Z,8.10
2018-06-02T21:57:02.581Z,7.67
2018-06-02T21:59:06.119Z,7.20
2018-06-02T22:01:09.353Z,7.00
2018-06-02T22:03:12.864Z,7.73
2018-06-02T22:05:16.421Z,7.20
2018-06-02T22:07:19.241Z,7.50
2018-06-02T22:09:22.954Z,7.70
2018-06-02T22:11:26.157Z,7.97
2018-06-02T22:13:28.977Z,7.67
2018-06-02T22:15:31.850Z,7.70
2018-06-02T22:17:35.372Z,8.53
2018-06-02T22:19:38.930Z,8.53
2018-06-02T22:21:42.440Z,7.80
2018-06-02T22:23:45.976Z,8.70
2018-06-02T22:25:49.503Z,8.20
2018-06-02T22:27:53.057Z,8.00
2018-06-02T22:29:56.546Z,8.13
2018-06-02T22:32:00.126Z,7.23
2018-06-02T22:34:03.633Z,9.50
2018-06-02T22:36:07.156Z,9.30
2018-06-02T22:38:10.663Z,7.87
2018-06-02T22:40:14.225Z,7.83
2018-06-02T22:42:17.780Z,7.93
2018-06-02T22:44:21.288Z,8.30
2018-06-02T22:46:24.853Z,9.10
2018-06-02T22:48:28.346Z,8.60
2018-06-02T22:50:31.565Z,8.77
2018-06-02T22:52:34.391Z,9.00
2018-06-02T22:54:37.242Z,8.87
2018-06-02T22:56:40.115Z,9.00
2018-06-02T22:58:42.928Z,8.30
2018-06-02T23:00:45.789Z,9.03
2018-06-02T23:02:49.302Z,8.80
2018-06-02T23:04:52.583Z,8.73
2018-06-02T23:06:55.468Z,8.67
2018-06-02T23:08:58.305Z,9.23
2018-06-02T23:11:01.505Z,8.27
2018-06-02T23:13:04.668Z,8.50
2018-06-02T23:15:08.197Z,7.97
2018-06-02T23:17:11.772Z,9.87
2018-06-02T23:19:15.266Z,9.93
2018-06-02T23:21:18.859Z,9.70
2018-06-02T23:23:22.413Z,9.07
2018-06-02T23:25:25.945Z,10.03
2018-06-02T23:27:29.548Z,11.50
2018-06-02T23:29:33.183Z,10.30
2018-06-02T23:31:36.754Z,10.73
2018-06-02T23:33:40.269Z,10.50
2018-06-02T23:35:43.792Z,9.40
2018-06-02T23:37:47.356Z,9.60
2018-06-02T23:39:50.857Z,9.20
2018-06-02T23:41:54.398Z,12.50
2018-06-02T23:43:57.958Z,12.40
2018-06-02T23:46:01.481Z,11.47
2018-06-02T23:48:04.352Z,10.37
2018-06-02T23:50:07.892Z,12.80
2018-06-02T23:52:11.444Z,11.30
2018-06-02T23:54:14.934Z,10.13
2018-06-02T23:56:18.446Z,9.87
2018-06-02T23:58:22.022Z,9.50
